Time;durP1;ratioP1;P1;durP2;ratioP2;P2;SDS_P1;SDS_P2;PMS_P1;PMS_P2;Temp;Humidity;BMP_temperature;BMP_pressure;BME280_temperature;BME280_humidity;BME280_pressure;Samples;Min_cycle;Max_cycle;Signal;HPM_P1;HPM_P2
2023/10/26 00:01:33;;;;;;;0.77;0.77;;;;;;;;;;4825989;29;20023;-82
2023/10/26 00:04:27;;;;;;;0.60;0.60;;;;;;;;;;4820363;29;20037;-80
2023/10/26 00:07:06;;;;;;;0.50;0.50;;;;;;;;;;4824388;29;20043;-81
2023/10/26 00:10:00;;;;;;;0.63;0.63;;;;;;;;;;4837273;29;20095;-82
2023/10/26 00:13:13;;;;;;;0.50;0.50;;;;;;;;;;4808406;29;20038;-81
2023/10/26 00:15:59;;;;;;;;;;;;;;;;;;4850357;29;20030;-80
2023/10/26 00:18:46;;;;;;;0.52;0.52;;;;;;;;;;4883905;29;19900;-81
2023/10/26 00:28:13;;;;;;;0.57;0.57;;;;;;;;;;4905125;29;20024;-82
2023/10/26 00:31:37;;;;;;;0.80;0.80;;;;;;;;;;4924016;29;20092;-82
2023/10/26 00:37:31;;;;;;;0.50;0.50;;;;;;;;;;4885192;29;20045;-80
2023/10/26 00:40:26;;;;;;;0.65;0.65;;;;;;;;;;4881784;29;20042;-80
2023/10/26 00:43:15;;;;;;;0.50;0.50;;;;;;;;;;4832195;29;20038;-80
2023/10/26 00:45:51;;;;;;;0.60;0.60;;;;;;;;;;4833588;29;20563;-80
2023/10/26 00:48:41;;;;;;;0.55;0.55;;;;;;;;;;4831250;29;20058;-81
2023/10/26 00:51:34;;;;;;;0.50;0.50;;;;;;;;;;4861833;29;20034;-80
2023/10/26 00:54:02;;;;;;;0.50;0.50;;;;;;;;;;4838227;29;20573;-80
2023/10/26 00:57:02;;;;;;;0.70;0.70;;;;;;;;;;4810331;29;20046;-80
2023/10/26 00:59:34;;;;;;;0.50;0.50;;;;;;;;;;4825593;29;20047;-79
2023/10/26 01:02:07;;;;;;;0.50;0.50;;;;;;;;;;4811701;29;20047;-80
2023/10/26 01:04:36;;;;;;;0.50;0.50;;;;;;;;;;4831303;29;20046;-81
2023/10/26 01:07:05;;;;;;;0.50;0.50;;;;;;;;;;4863035;29;20037;-80
2023/10/26 01:09:54;;;;;;;0.57;0.57;;;;;;;;;;4850059;29;20077;-79
2023/10/26 01:12:43;;;;;;;0.50;0.50;;;;;;;;;;4844177;29;20035;-82
2023/10/26 01:15:29;;;;;;;0.60;0.60;;;;;;;;;;4844697;29;20039;-80
2023/10/26 01:18:25;;;;;;;0.50;0.50;;;;;;;;;;4844224;29;20031;-81
2023/10/26 01:20:56;;;;;;;0.50;0.50;;;;;;;;;;4843958;29;20119;-80
2023/10/26 01:24:00;;;;;;;0.60;0.60;;;;;;;;;;4844764;29;20045;-80
2023/10/26 01:27:14;;;;;;;0.60;0.60;;;;;;;;;;4863200;29;20083;-81
2023/10/26 01:30:28;;;;;;;0.73;0.65;;;;;;;;;;4863194;29;20028;-80
2023/10/26 01:33:43;;;;;;;0.70;0.70;;;;;;;;;;4862709;29;20022;-80
2023/10/26 01:49:20;;;;;;;0.50;0.50;;;;;;;;;;4837210;29;20058;-82
2023/10/26 01:52:27;;;;;;;0.60;0.60;;;;;;;;;;4773584;30;20060;-80
2023/10/26 01:55:24;;;;;;;0.50;0.50;;;;;;;;;;4772152;30;20039;-80
2023/10/26 01:58:17;;;;;;;0.93;0.68;;;;;;;;;;4753445;30;20053;-80
2023/10/26 02:01:40;;;;;;;0.40;0.40;;;;;;;;;;4742384;30;20028;-80
2023/10/26 02:04:57;;;;;;;0.60;0.60;;;;;;;;;;4772682;30;20386;-81
2023/10/26 02:07:50;;;;;;;0.50;0.50;;;;;;;;;;4792085;29;20040;-82
2023/10/26 02:10:36;;;;;;;;;;;;;;;;;;4778523;30;20053;-81
2023/10/26 02:13:53;;;;;;;0.60;0.60;;;;;;;;;;4791954;30;19909;-82
2023/10/26 02:16:55;;;;;;;0.60;0.60;;;;;;;;;;4771337;30;20040;-81
2023/10/26 02:19:42;;;;;;;0.50;0.50;;;;;;;;;;4745675;30;20040;-81
2023/10/26 02:22:34;;;;;;;1.75;0.68;;;;;;;;;;4756401;30;20047;-81
2023/10/26 02:25:44;;;;;;;0.50;0.50;;;;;;;;;;4754082;30;20044;-81
2023/10/26 02:28:39;;;;;;;0.40;0.40;;;;;;;;;;4772307;30;20036;-82
2023/10/26 02:31:38;;;;;;;0.50;0.50;;;;;;;;;;4757041;30;20036;-81
2023/10/26 02:34:30;;;;;;;0.50;0.50;;;;;;;;;;4771011;30;20033;-81
2023/10/26 02:37:45;;;;;;;0.73;0.70;;;;;;;;;;4795813;30;20025;-81
2023/10/26 02:40:55;;;;;;;0.60;0.60;;;;;;;;;;4848779;29;20058;-81
2023/10/26 02:47:11;;;;;;;0.60;0.60;;;;;;;;;;4842779;29;20057;-81
2023/10/26 02:53:33;;;;;;;0.50;0.50;;;;;;;;;;4845337;29;20103;-82
2023/10/26 02:56:32;;;;;;;0.70;0.70;;;;;;;;;;4862059;29;20034;-82
2023/10/26 02:59:20;;;;;;;0.65;0.60;;;;;;;;;;4844269;29;20039;-81
2023/10/26 03:02:21;;;;;;;0.70;0.70;;;;;;;;;;4862075;29;20065;-81
2023/10/26 03:05:38;;;;;;;0.70;0.70;;;;;;;;;;4869940;29;20048;-81
2023/10/26 03:08:11;;;;;;;0.60;0.60;;;;;;;;;;4839102;29;20039;-81
2023/10/26 03:11:18;;;;;;;0.68;0.60;;;;;;;;;;4862648;29;20042;-81
2023/10/26 03:17:22;;;;;;;;;;;;;;;;;;4855506;29;20091;-83
2023/10/26 03:20:17;;;;;;;0.60;0.60;;;;;;;;;;4861889;29;19901;-82
2023/10/26 03:23:53;;;;;;;0.60;0.60;;;;;;;;;;4844954;29;20034;-81
2023/10/26 03:27:08;;;;;;;0.60;0.60;;;;;;;;;;4845039;29;20026;-82
2023/10/26 03:30:11;;;;;;;0.60;0.60;;;;;;;;;;4863126;29;20045;-82
2023/10/26 03:33:07;;;;;;;0.60;0.60;;;;;;;;;;4860798;29;20113;-81
2023/10/26 03:57:59;;;;;;;0.40;0.40;;;;;;;;;;4885314;29;20065;-84
2023/10/26 04:07:41;;;;;;;0.88;0.77;;;;;;;;;;4832754;29;20106;-85
2023/10/26 04:10:51;;;;;;;0.60;0.60;;;;;;;;;;4850743;29;20030;-85
2023/10/26 04:16:47;;;;;;;;;;;;;;;;;;4814815;29;20046;-83
2023/10/26 04:22:37;;;;;;;;;;;;;;;;;;4832228;29;20042;-83
2023/10/26 04:25:45;;;;;;;0.95;0.82;;;;;;;;;;4867943;29;19920;-83
2023/10/26 04:29:07;;;;;;;2.13;0.95;;;;;;;;;;4849743;29;20053;-82
2023/10/26 04:35:28;;;;;;;0.60;0.60;;;;;;;;;;4831842;29;20025;-84
2023/10/26 04:41:57;;;;;;;0.68;0.68;;;;;;;;;;4785122;29;20128;-83
2023/10/26 05:10:22;;;;;;;0.60;0.60;;;;;;;;;;4679378;30;20131;-85
2023/10/26 05:16:56;;;;;;;0.50;0.50;;;;;;;;;;4673580;30;20022;-84
2023/10/26 05:26:27;;;;;;;0.60;0.60;;;;;;;;;;5020832;28;20030;-85
2023/10/26 05:29:50;;;;;;;0.65;0.65;;;;;;;;;;4981000;28;20112;-84
2023/10/26 05:32:40;;;;;;;0.60;0.60;;;;;;;;;;4977907;29;20046;-82
2023/10/26 05:42:12;;;;;;;1.05;0.88;;;;;;;;;;4941704;29;20040;-83
2023/10/26 05:45:52;;;;;;;0.60;0.60;;;;;;;;;;4942557;29;20053;-84
2023/10/26 05:49:09;;;;;;;0.80;0.80;;;;;;;;;;4942642;29;20012;-85
2023/10/26 05:58:11;;;;;;;0.82;0.82;;;;;;;;;;4942419;29;20045;-85
2023/10/26 06:01:09;;;;;;;0.60;0.60;;;;;;;;;;4923006;29;20080;-83
2023/10/26 06:10:21;;;;;;;0.90;0.70;;;;;;;;;;4885484;29;20037;-84
2023/10/26 06:35:55;;;;;;;0.85;0.80;;;;;;;;;;4885295;29;20067;-84
2023/10/26 06:57:27;;;;;;;1.02;0.80;;;;;;;;;;4862152;29;20061;-84
2023/10/26 07:00:40;;;;;;;0.60;0.60;;;;;;;;;;4865891;29;20018;-83
2023/10/26 07:04:00;;;;;;;0.77;0.77;;;;;;;;;;4881580;29;20105;-84
2023/10/26 07:28:13;;;;;;;0.50;0.50;;;;;;;;;;5029817;23;19945;-83
2023/10/26 07:40:13;;;;;;;;;;;;;;;;;;4931072;29;20144;-81
2023/10/26 07:55:13;;;;;;;0.40;0.40;;;;;;;;;;4868999;29;20108;-86
2023/10/26 08:04:08;;;;;;;0.67;0.67;;;;;;;;;;4865702;29;20063;-83
2023/10/26 08:06:35;;;;;;;0.60;0.60;;;;;;;;;;4861204;29;20105;-81
2023/10/26 08:09:02;;;;;;;0.43;0.43;;;;;;;;;;4858895;29;20074;-81
2023/10/26 08:11:29;;;;;;;0.50;0.50;;;;;;;;;;4846801;29;20600;-80
2023/10/26 08:14:08;;;;;;;0.43;0.43;;;;;;;;;;4827930;29;20027;-81
2023/10/26 08:16:34;;;;;;;0.52;0.52;;;;;;;;;;4837915;29;20038;-82
2023/10/26 08:19:03;;;;;;;0.40;0.40;;;;;;;;;;4841654;29;20138;-81
2023/10/26 08:21:29;;;;;;;0.50;0.50;;;;;;;;;;4877093;29;20038;-81
2023/10/26 08:23:58;;;;;;;0.50;0.50;;;;;;;;;;4866142;29;20095;-81
2023/10/26 08:26:25;;;;;;;0.40;0.40;;;;;;;;;;4842147;29;20019;-79
2023/10/26 08:28:57;;;;;;;0.40;0.40;;;;;;;;;;4903613;29;20061;-82
2023/10/26 08:31:49;;;;;;;0.50;0.50;;;;;;;;;;4932530;29;20045;-80
2023/10/26 08:34:17;;;;;;;0.40;0.40;;;;;;;;;;4955089;28;20478;-78
2023/10/26 08:36:44;;;;;;;0.40;0.40;;;;;;;;;;4971477;28;20027;-80
2023/10/26 08:39:10;;;;;;;0.40;0.40;;;;;;;;;;4970685;28;20039;-79
2023/10/26 08:41:37;;;;;;;0.38;0.38;;;;;;;;;;5005346;28;20023;-82
2023/10/26 08:44:03;;;;;;;0.50;0.50;;;;;;;;;;5032579;28;20022;-79
2023/10/26 08:46:30;;;;;;;0.50;0.50;;;;;;;;;;5030485;28;20029;-81
2023/10/26 08:48:58;;;;;;;0.50;0.50;;;;;;;;;;5021555;28;20411;-82
2023/10/26 08:51:27;;;;;;;0.40;0.40;;;;;;;;;;4998742;28;20025;-80
2023/10/26 08:53:54;;;;;;;0.43;0.43;;;;;;;;;;4975688;28;20030;-80
2023/10/26 08:56:22;;;;;;;0.45;0.45;;;;;;;;;;5009795;28;20022;-80
2023/10/26 08:58:51;;;;;;;0.60;0.60;;;;;;;;;;5000187;28;20033;-80
2023/10/26 09:01:17;;;;;;;0.40;0.40;;;;;;;;;;5011765;28;20034;-80
2023/10/26 09:03:46;;;;;;;0.38;0.38;;;;;;;;;;5006798;28;20113;-79
2023/10/26 09:06:12;;;;;;;0.50;0.50;;;;;;;;;;5003932;28;20023;-80
2023/10/26 09:08:40;;;;;;;0.50;0.50;;;;;;;;;;5019075;28;20074;-84
2023/10/26 09:11:20;;;;;;;0.40;0.40;;;;;;;;;;4977175;28;20043;-82
2023/10/26 09:13:47;;;;;;;0.40;0.40;;;;;;;;;;4971116;28;20023;-82
2023/10/26 09:16:15;;;;;;;0.50;0.50;;;;;;;;;;4959739;29;20031;-81
2023/10/26 09:18:56;;;;;;;0.40;0.40;;;;;;;;;;4950531;28;20023;-80
2023/10/26 09:21:25;;;;;;;0.50;0.50;;;;;;;;;;4974011;28;20038;-79
2023/10/26 09:23:55;;;;;;;0.45;0.45;;;;;;;;;;4973719;28;20037;-84
2023/10/26 09:26:21;;;;;;;0.40;0.40;;;;;;;;;;4972861;28;20038;-80
2023/10/26 09:28:52;;;;;;;0.50;0.50;;;;;;;;;;4971989;28;20047;-81
2023/10/26 09:31:18;;;;;;;0.40;0.40;;;;;;;;;;4975046;28;20038;-80
2023/10/26 09:33:45;;;;;;;0.40;0.40;;;;;;;;;;4975060;28;20026;-81
2023/10/26 09:36:12;;;;;;;0.45;0.45;;;;;;;;;;4975447;28;20039;-80
2023/10/26 09:38:40;;;;;;;2.25;0.50;;;;;;;;;;4979887;28;20019;-84
2023/10/26 09:41:10;;;;;;;0.38;0.38;;;;;;;;;;4984517;28;20038;-81
2023/10/26 09:43:44;;;;;;;0.40;0.40;;;;;;;;;;5035625;28;20018;-83
2023/10/26 09:46:13;;;;;;;0.30;0.30;;;;;;;;;;5012862;28;20035;-82
2023/10/26 09:48:40;;;;;;;0.40;0.40;;;;;;;;;;4998969;28;20034;-83
2023/10/26 09:51:08;;;;;;;0.40;0.40;;;;;;;;;;4982021;28;20199;-82
2023/10/26 09:53:36;;;;;;;0.50;0.50;;;;;;;;;;4999520;28;20090;-83
2023/10/26 09:56:05;;;;;;;0.50;0.50;;;;;;;;;;4995365;28;20022;-83
2023/10/26 09:58:39;;;;;;;0.40;0.40;;;;;;;;;;4967645;28;20021;-85
2023/10/26 10:01:33;;;;;;;0.50;0.50;;;;;;;;;;5016632;28;20034;-82
2023/10/26 10:04:02;;;;;;;0.30;0.30;;;;;;;;;;5016069;28;20038;-84
2023/10/26 10:06:48;;;;;;;0.38;0.38;;;;;;;;;;4977511;29;20050;-85
2023/10/26 10:09:19;;;;;;;0.40;0.40;;;;;;;;;;4954353;29;20043;-81
2023/10/26 10:11:53;;;;;;;0.40;0.40;;;;;;;;;;4957901;29;20063;-84
2023/10/26 10:15:09;;;;;;;0.30;0.30;;;;;;;;;;4889323;29;20027;-86
2023/10/26 10:20:42;;;;;;;0.50;0.50;;;;;;;;;;4863400;29;20051;-81
2023/10/26 10:23:09;;;;;;;0.50;0.50;;;;;;;;;;4858896;29;20057;-82
2023/10/26 10:25:50;;;;;;;0.40;0.40;;;;;;;;;;4861502;29;20042;-83
2023/10/26 10:28:21;;;;;;;0.30;0.30;;;;;;;;;;4844922;29;20042;-83
2023/10/26 10:30:58;;;;;;;0.30;0.30;;;;;;;;;;4840708;29;20045;-82
2023/10/26 10:33:27;;;;;;;0.38;0.38;;;;;;;;;;4846902;29;20069;-83
2023/10/26 10:36:01;;;;;;;0.30;0.30;;;;;;;;;;4861118;29;20063;-81
2023/10/26 10:38:28;;;;;;;0.47;0.47;;;;;;;;;;4875512;29;20047;-81
2023/10/26 10:40:54;;;;;;;0.40;0.40;;;;;;;;;;4873851;29;20038;-82
2023/10/26 10:43:35;;;;;;;1.00;0.60;;;;;;;;;;4890559;29;20064;-81
2023/10/26 10:46:11;;;;;;;0.40;0.40;;;;;;;;;;4919404;29;20040;-80
2023/10/26 10:48:37;;;;;;;0.40;0.40;;;;;;;;;;4911542;29;20130;-82
2023/10/26 10:51:03;;;;;;;0.30;0.30;;;;;;;;;;4925258;29;20155;-82
2023/10/26 10:53:31;;;;;;;0.30;0.30;;;;;;;;;;4947519;28;20039;-80
2023/10/26 10:55:58;;;;;;;0.40;0.40;;;;;;;;;;4999622;28;20034;-81
2023/10/26 10:58:24;;;;;;;0.40;0.40;;;;;;;;;;5005771;28;20065;-79
2023/10/26 11:00:50;;;;;;;0.30;0.30;;;;;;;;;;4986655;28;20027;-80
2023/10/26 11:03:20;;;;;;;0.40;0.40;;;;;;;;;;4994647;28;20015;-80
2023/10/26 11:05:47;;;;;;;0.30;0.30;;;;;;;;;;4997649;28;20029;-81
2023/10/26 11:08:13;;;;;;;0.32;0.32;;;;;;;;;;4988017;28;20030;-80
2023/10/26 11:10:39;;;;;;;0.40;0.40;;;;;;;;;;4987367;28;20031;-80
2023/10/26 11:13:06;;;;;;;0.30;0.30;;;;;;;;;;4993472;28;20015;-83
2023/10/26 11:15:36;;;;;;;0.50;0.50;;;;;;;;;;5006322;28;20033;-81
2023/10/26 11:18:02;;;;;;;0.77;0.57;;;;;;;;;;4992789;28;20026;-80
2023/10/26 11:20:36;;;;;;;0.47;0.47;;;;;;;;;;5001717;28;20125;-83
2023/10/26 11:23:04;;;;;;;0.30;0.30;;;;;;;;;;4989442;28;20053;-80
2023/10/26 11:25:30;;;;;;;0.38;0.38;;;;;;;;;;4995599;28;20038;-82
2023/10/26 11:27:57;;;;;;;0.57;0.57;;;;;;;;;;4997199;28;20049;-81
2023/10/26 11:30:23;;;;;;;0.30;0.30;;;;;;;;;;4983488;28;20063;-82
2023/10/26 11:32:49;;;;;;;0.30;0.30;;;;;;;;;;4984110;28;20023;-81
2023/10/26 11:35:20;;;;;;;0.40;0.40;;;;;;;;;;4968094;28;20031;-82
2023/10/26 11:37:53;;;;;;;0.30;0.30;;;;;;;;;;4968295;28;20030;-82
2023/10/26 11:40:28;;;;;;;0.30;0.30;;;;;;;;;;4967057;28;20041;-83
2023/10/26 11:43:01;;;;;;;0.40;0.40;;;;;;;;;;4966349;28;20027;-83
2023/10/26 11:45:28;;;;;;;0.30;0.30;;;;;;;;;;4965691;28;20050;-80
2023/10/26 11:47:55;;;;;;;0.30;0.30;;;;;;;;;;4950192;28;20066;-82
2023/10/26 11:50:28;;;;;;;0.30;0.30;;;;;;;;;;4969218;28;20170;-81
2023/10/26 11:53:00;;;;;;;0.30;0.30;;;;;;;;;;5003446;28;20023;-80
2023/10/26 11:55:28;;;;;;;0.30;0.30;;;;;;;;;;4998336;28;20039;-83
2023/10/26 11:57:58;;;;;;;0.30;0.30;;;;;;;;;;4970922;28;20095;-81
2023/10/26 12:00:26;;;;;;;0.30;0.30;;;;;;;;;;4971367;28;20026;-84
2023/10/26 12:02:56;;;;;;;0.52;0.50;;;;;;;;;;5003416;28;20027;-81
2023/10/26 12:05:25;;;;;;;0.32;0.32;;;;;;;;;;4989194;28;20023;-80
2023/10/26 12:07:52;;;;;;;0.30;0.30;;;;;;;;;;4986872;28;20041;-80
2023/10/26 12:10:26;;;;;;;0.30;0.30;;;;;;;;;;5002665;28;20045;-83
2023/10/26 12:13:03;;;;;;;0.30;0.30;;;;;;;;;;4993718;28;20074;-84
2023/10/26 12:15:53;;;;;;;0.47;0.47;;;;;;;;;;5023093;28;20049;-84
2023/10/26 12:18:41;;;;;;;0.30;0.30;;;;;;;;;;4960973;28;20035;-84
2023/10/26 12:21:31;;;;;;;0.30;0.30;;;;;;;;;;4994161;28;20087;-84
2023/10/26 12:24:21;;;;;;;0.20;0.20;;;;;;;;;;5014496;28;20092;-86
2023/10/26 12:27:16;;;;;;;0.40;0.40;;;;;;;;;;4992026;28;20050;-85
2023/10/26 12:30:07;;;;;;;0.30;0.30;;;;;;;;;;4992562;28;20042;-85
2023/10/26 12:32:43;;;;;;;0.28;0.28;;;;;;;;;;4994479;28;20101;-84
2023/10/26 12:35:21;;;;;;;0.20;0.20;;;;;;;;;;4974188;28;20035;-86
2023/10/26 12:37:48;;;;;;;0.40;0.40;;;;;;;;;;4935674;29;20033;-83
2023/10/26 12:40:15;;;;;;;0.52;0.52;;;;;;;;;;4916465;29;20068;-83
2023/10/26 12:42:43;;;;;;;0.22;0.22;;;;;;;;;;4930242;29;20056;-82
2023/10/26 12:45:10;;;;;;;0.30;0.30;;;;;;;;;;4930717;29;20036;-84
2023/10/26 12:47:36;;;;;;;0.35;0.35;;;;;;;;;;4932236;29;20479;-82
2023/10/26 12:50:03;;;;;;;0.25;0.25;;;;;;;;;;4937336;29;20126;-81
2023/10/26 12:52:30;;;;;;;0.20;0.20;;;;;;;;;;4931021;29;20028;-82
2023/10/26 12:54:56;;;;;;;0.30;0.30;;;;;;;;;;4931512;29;20020;-82
2023/10/26 12:57:22;;;;;;;0.30;0.30;;;;;;;;;;4935108;29;20036;-83
2023/10/26 12:59:51;;;;;;;0.20;0.20;;;;;;;;;;4953462;29;20036;-83
2023/10/26 13:02:17;;;;;;;0.20;0.20;;;;;;;;;;4951515;29;20051;-80
2023/10/26 13:04:44;;;;;;;0.20;0.20;;;;;;;;;;4979787;28;20035;-81
2023/10/26 13:07:10;;;;;;;0.30;0.30;;;;;;;;;;4956213;29;20031;-82
2023/10/26 13:09:40;;;;;;;0.30;0.30;;;;;;;;;;4977196;28;20023;-82
2023/10/26 13:12:07;;;;;;;0.20;0.20;;;;;;;;;;4972768;28;20027;-81
2023/10/26 13:14:34;;;;;;;0.20;0.20;;;;;;;;;;4971861;28;20054;-82
2023/10/26 13:17:00;;;;;;;0.20;0.20;;;;;;;;;;4973100;28;20023;-81
2023/10/26 13:19:27;;;;;;;0.30;0.30;;;;;;;;;;4970161;28;20034;-80
2023/10/26 13:21:53;;;;;;;0.30;0.30;;;;;;;;;;4954266;29;20039;-81
2023/10/26 13:24:20;;;;;;;0.30;0.30;;;;;;;;;;4952899;29;20033;-82
2023/10/26 13:26:46;;;;;;;0.22;0.22;;;;;;;;;;4965784;28;20037;-82
2023/10/26 13:29:12;;;;;;;0.20;0.20;;;;;;;;;;5005719;28;20074;-81
2023/10/26 13:31:38;;;;;;;0.30;0.30;;;;;;;;;;4975128;28;20030;-82
2023/10/26 13:34:07;;;;;;;0.35;0.35;;;;;;;;;;4998019;28;20030;-82
2023/10/26 13:36:33;;;;;;;0.50;0.40;;;;;;;;;;4997860;28;20033;-82
2023/10/26 13:39:03;;;;;;;0.30;0.30;;;;;;;;;;4991100;28;20019;-81
2023/10/26 13:41:29;;;;;;;0.30;0.30;;;;;;;;;;5007321;28;20062;-82
2023/10/26 13:43:55;;;;;;;0.32;0.32;;;;;;;;;;4998502;28;20030;-83
2023/10/26 13:46:22;;;;;;;0.25;0.25;;;;;;;;;;5012215;28;20027;-82
2023/10/26 13:48:48;;;;;;;0.40;0.40;;;;;;;;;;5012286;28;20050;-82
2023/10/26 13:51:18;;;;;;;0.30;0.30;;;;;;;;;;5011811;28;20033;-81
2023/10/26 13:53:44;;;;;;;0.30;0.30;;;;;;;;;;5011030;28;20023;-81
2023/10/26 13:56:10;;;;;;;0.30;0.30;;;;;;;;;;5011386;28;20022;-81
2023/10/26 13:58:36;;;;;;;0.30;0.30;;;;;;;;;;4998242;28;20030;-83
2023/10/26 14:01:03;;;;;;;0.30;0.30;;;;;;;;;;5014354;28;20054;-81
2023/10/26 14:03:29;;;;;;;0.30;0.30;;;;;;;;;;5010118;28;20019;-81
2023/10/26 14:05:56;;;;;;;0.32;0.32;;;;;;;;;;4999752;28;20033;-83
2023/10/26 14:08:22;;;;;;;0.30;0.30;;;;;;;;;;5013342;28;20114;-81
2023/10/26 14:10:50;;;;;;;0.30;0.30;;;;;;;;;;5012232;28;20097;-83
2023/10/26 14:13:17;;;;;;;0.30;0.30;;;;;;;;;;4976751;28;20110;-81
2023/10/26 14:15:45;;;;;;;0.30;0.30;;;;;;;;;;4975354;28;20031;-83
2023/10/26 14:18:13;;;;;;;0.30;0.30;;;;;;;;;;4975221;28;20033;-84
2023/10/26 14:20:40;;;;;;;0.30;0.30;;;;;;;;;;4973905;28;20050;-80
2023/10/26 14:23:07;;;;;;;0.30;0.30;;;;;;;;;;4970242;28;20033;-84
2023/10/26 14:25:34;;;;;;;0.30;0.30;;;;;;;;;;4938531;29;20043;-80
2023/10/26 14:28:00;;;;;;;0.38;0.38;;;;;;;;;;4942900;29;20078;-81
2023/10/26 14:30:27;;;;;;;0.43;0.43;;;;;;;;;;4930210;29;20444;-80
2023/10/26 14:32:53;;;;;;;0.30;0.30;;;;;;;;;;4930831;29;20024;-81
2023/10/26 14:35:21;;;;;;;0.30;0.30;;;;;;;;;;4933779;29;20039;-81
2023/10/26 14:37:50;;;;;;;0.30;0.30;;;;;;;;;;4918927;29;20067;-81
2023/10/26 14:40:16;;;;;;;0.30;0.30;;;;;;;;;;4922706;29;20068;-82
2023/10/26 14:42:42;;;;;;;0.30;0.30;;;;;;;;;;4963614;28;20063;-80
2023/10/26 14:45:09;;;;;;;0.30;0.30;;;;;;;;;;4950968;29;20058;-81
2023/10/26 14:47:35;;;;;;;0.30;0.30;;;;;;;;;;4951847;29;20091;-82
2023/10/26 14:50:01;;;;;;;0.30;0.30;;;;;;;;;;4951979;29;20059;-80
2023/10/26 14:52:27;;;;;;;0.30;0.30;;;;;;;;;;4954493;29;20028;-81
2023/10/26 14:54:53;;;;;;;0.35;0.35;;;;;;;;;;4957702;29;20108;-82
2023/10/26 14:57:19;;;;;;;0.47;0.47;;;;;;;;;;4990195;28;20018;-81
2023/10/26 14:59:45;;;;;;;0.40;0.40;;;;;;;;;;4994558;28;20026;-82
2023/10/26 15:02:11;;;;;;;0.47;0.47;;;;;;;;;;4976352;28;20048;-80
2023/10/26 15:04:37;;;;;;;0.35;0.35;;;;;;;;;;5007926;28;20046;-82
2023/10/26 15:07:04;;;;;;;0.40;0.40;;;;;;;;;;5009826;28;20030;-80
2023/10/26 15:09:33;;;;;;;0.38;0.38;;;;;;;;;;5016180;28;20502;-80
2023/10/26 15:11:59;;;;;;;0.30;0.30;;;;;;;;;;5004337;28;20437;-80
2023/10/26 15:14:26;;;;;;;0.30;0.30;;;;;;;;;;5002332;28;20024;-80
2023/10/26 15:16:52;;;;;;;0.32;0.32;;;;;;;;;;5004553;28;20126;-81
2023/10/26 15:19:18;;;;;;;0.65;0.45;;;;;;;;;;5003386;28;20022;-82
2023/10/26 15:21:44;;;;;;;0.40;0.40;;;;;;;;;;5006501;28;20027;-80
2023/10/26 15:24:11;;;;;;;0.30;0.30;;;;;;;;;;5005291;28;20034;-82
2023/10/26 15:26:49;;;;;;;0.30;0.30;;;;;;;;;;5006418;28;20482;-86
2023/10/26 15:29:15;;;;;;;0.38;0.38;;;;;;;;;;5006597;28;20074;-81
2023/10/26 15:31:42;;;;;;;0.68;0.50;;;;;;;;;;5005370;28;20028;-80
2023/10/26 15:34:08;;;;;;;0.40;0.40;;;;;;;;;;5005533;28;20023;-81
2023/10/26 15:36:34;;;;;;;0.50;0.50;;;;;;;;;;5005627;28;20034;-83
2023/10/26 15:39:01;;;;;;;0.40;0.40;;;;;;;;;;5004844;28;20038;-80
2023/10/26 15:41:27;;;;;;;0.30;0.30;;;;;;;;;;5006036;28;20030;-83
2023/10/26 15:43:54;;;;;;;0.30;0.30;;;;;;;;;;5010757;28;20094;-80
2023/10/26 15:46:21;;;;;;;0.40;0.40;;;;;;;;;;5007515;28;20090;-83
2023/10/26 15:48:48;;;;;;;0.40;0.40;;;;;;;;;;5009550;28;20037;-83
2023/10/26 15:51:15;;;;;;;0.40;0.40;;;;;;;;;;5008267;28;20099;-82
2023/10/26 15:53:42;;;;;;;0.30;0.30;;;;;;;;;;5010580;28;20018;-80
2023/10/26 15:56:10;;;;;;;0.40;0.40;;;;;;;;;;5008867;28;20496;-80
2023/10/26 15:58:36;;;;;;;0.40;0.40;;;;;;;;;;5012919;28;20022;-81
2023/10/26 16:01:03;;;;;;;0.30;0.30;;;;;;;;;;5009161;28;20023;-80
2023/10/26 16:03:32;;;;;;;0.40;0.40;;;;;;;;;;5008197;28;20038;-81
2023/10/26 16:06:09;;;;;;;0.40;0.40;;;;;;;;;;4995058;28;20089;-81
2023/10/26 16:08:36;;;;;;;0.40;0.40;;;;;;;;;;5017434;28;20038;-82
2023/10/26 16:11:04;;;;;;;0.40;0.40;;;;;;;;;;5012826;28;20030;-82
2023/10/26 16:13:30;;;;;;;0.40;0.40;;;;;;;;;;5015490;28;20031;-82
2023/10/26 16:15:57;;;;;;;0.40;0.40;;;;;;;;;;5015093;28;20033;-83
2023/10/26 16:18:25;;;;;;;0.40;0.40;;;;;;;;;;5012417;28;20022;-80
2023/10/26 16:20:52;;;;;;;0.40;0.40;;;;;;;;;;5013150;28;20383;-82
2023/10/26 16:23:18;;;;;;;0.30;0.30;;;;;;;;;;5014703;28;20034;-81
2023/10/26 16:25:46;;;;;;;0.40;0.40;;;;;;;;;;5013018;28;20057;-82
2023/10/26 16:28:12;;;;;;;0.40;0.40;;;;;;;;;;5012578;28;20113;-81
2023/10/26 16:30:42;;;;;;;0.40;0.40;;;;;;;;;;5008729;28;20073;-79
2023/10/26 16:33:11;;;;;;;0.30;0.30;;;;;;;;;;5012308;28;20037;-79
2023/10/26 16:35:39;;;;;;;0.40;0.40;;;;;;;;;;5011544;28;20594;-82
2023/10/26 16:38:06;;;;;;;0.40;0.40;;;;;;;;;;5009587;28;20018;-82
2023/10/26 16:40:33;;;;;;;0.50;0.50;;;;;;;;;;4995090;28;20053;-80
2023/10/26 16:42:59;;;;;;;0.40;0.40;;;;;;;;;;5008860;28;20110;-80
2023/10/26 16:45:26;;;;;;;0.40;0.40;;;;;;;;;;5010751;28;20040;-81
2023/10/26 16:47:52;;;;;;;0.40;0.40;;;;;;;;;;5011156;28;20085;-80
2023/10/26 16:50:18;;;;;;;0.40;0.40;;;;;;;;;;5013008;28;20038;-82
2023/10/26 16:52:45;;;;;;;0.40;0.40;;;;;;;;;;5013088;28;20022;-81
2023/10/26 16:55:11;;;;;;;0.40;0.40;;;;;;;;;;5013876;28;20026;-82
2023/10/26 16:57:38;;;;;;;0.40;0.40;;;;;;;;;;5013264;28;20045;-82
2023/10/26 17:00:05;;;;;;;0.40;0.40;;;;;;;;;;5014253;28;20094;-83
2023/10/26 17:02:35;;;;;;;0.50;0.50;;;;;;;;;;5014055;28;20038;-81
2023/10/26 17:05:01;;;;;;;0.40;0.40;;;;;;;;;;5013665;28;20030;-81
2023/10/26 17:07:27;;;;;;;0.40;0.40;;;;;;;;;;5014187;28;20026;-80
2023/10/26 17:09:53;;;;;;;0.45;0.45;;;;;;;;;;5013840;28;20026;-81
2023/10/26 17:12:20;;;;;;;0.65;0.65;;;;;;;;;;5014903;28;20462;-82
2023/10/26 17:14:47;;;;;;;0.40;0.40;;;;;;;;;;5015324;28;20566;-80
2023/10/26 17:17:17;;;;;;;0.50;0.50;;;;;;;;;;5013709;28;20026;-82
2023/10/26 17:19:44;;;;;;;0.50;0.50;;;;;;;;;;5013081;28;20026;-82
2023/10/26 17:22:11;;;;;;;0.40;0.40;;;;;;;;;;5014908;28;20035;-81
2023/10/26 17:24:37;;;;;;;0.50;0.50;;;;;;;;;;5013771;28;20035;-80
2023/10/26 17:27:04;;;;;;;0.50;0.50;;;;;;;;;;5013288;28;20121;-81
2023/10/26 17:29:31;;;;;;;0.40;0.40;;;;;;;;;;5012488;28;20053;-81
2023/10/26 17:31:57;;;;;;;0.50;0.50;;;;;;;;;;5013116;28;20030;-82
2023/10/26 17:34:24;;;;;;;0.40;0.40;;;;;;;;;;5015411;28;20032;-83
2023/10/26 17:36:51;;;;;;;0.95;0.90;;;;;;;;;;5014829;28;20098;-82
2023/10/26 17:39:18;;;;;;;0.40;0.40;;;;;;;;;;5014988;28;20061;-83
2023/10/26 17:41:45;;;;;;;0.45;0.45;;;;;;;;;;5015962;28;20054;-81
2023/10/26 17:44:12;;;;;;;0.60;0.60;;;;;;;;;;5017145;28;20094;-83
2023/10/26 17:46:38;;;;;;;0.40;0.40;;;;;;;;;;5001281;28;20046;-83
2023/10/26 17:49:04;;;;;;;0.50;0.50;;;;;;;;;;5015147;28;20038;-81
2023/10/26 17:51:32;;;;;;;0.50;0.50;;;;;;;;;;5014071;28;20033;-82
2023/10/26 17:54:04;;;;;;;0.40;0.40;;;;;;;;;;4993970;28;20037;-82
2023/10/26 17:56:33;;;;;;;0.50;0.50;;;;;;;;;;4978778;28;20049;-81
2023/10/26 17:58:59;;;;;;;0.40;0.40;;;;;;;;;;4979142;28;20035;-80
2023/10/26 18:01:25;;;;;;;0.50;0.50;;;;;;;;;;4978431;28;20031;-82
2023/10/26 18:03:52;;;;;;;0.40;0.40;;;;;;;;;;4978319;28;20098;-81
2023/10/26 18:06:21;;;;;;;0.40;0.40;;;;;;;;;;4977265;28;20027;-80
2023/10/26 18:08:49;;;;;;;0.40;0.40;;;;;;;;;;4977150;28;20042;-81
2023/10/26 18:11:16;;;;;;;0.40;0.40;;;;;;;;;;4974609;29;20094;-83
2023/10/26 18:13:42;;;;;;;0.40;0.40;;;;;;;;;;4957899;29;20075;-83
2023/10/26 18:16:08;;;;;;;0.50;0.50;;;;;;;;;;4957129;28;20031;-81
2023/10/26 18:18:35;;;;;;;0.40;0.40;;;;;;;;;;4957030;29;20023;-81
2023/10/26 18:21:02;;;;;;;0.47;0.47;;;;;;;;;;4957617;29;20043;-82
2023/10/26 18:23:30;;;;;;;0.43;0.43;;;;;;;;;;4956403;29;20067;-81
2023/10/26 18:25:58;;;;;;;0.40;0.40;;;;;;;;;;4972255;28;20157;-81
2023/10/26 18:28:24;;;;;;;0.60;0.60;;;;;;;;;;4990097;28;20565;-81
2023/10/26 18:31:03;;;;;;;0.50;0.50;;;;;;;;;;4990560;28;20035;-80
2023/10/26 18:33:30;;;;;;;0.50;0.50;;;;;;;;;;4988431;28;20035;-80
2023/10/26 18:36:02;;;;;;;0.60;0.60;;;;;;;;;;4987968;28;20166;-81
2023/10/26 18:38:28;;;;;;;0.50;0.50;;;;;;;;;;4989688;28;20030;-82
2023/10/26 18:40:55;;;;;;;0.40;0.40;;;;;;;;;;4994611;28;20034;-82
2023/10/26 18:43:21;;;;;;;0.70;0.70;;;;;;;;;;4992181;28;20043;-82
2023/10/26 18:46:08;;;;;;;0.47;0.47;;;;;;;;;;4971684;28;20035;-80
2023/10/26 18:48:35;;;;;;;0.50;0.50;;;;;;;;;;5000275;28;20066;-82
2023/10/26 18:51:02;;;;;;;0.40;0.40;;;;;;;;;;5009334;28;20027;-80
2023/10/26 18:53:28;;;;;;;0.45;0.45;;;;;;;;;;5011986;28;20057;-82
2023/10/26 18:55:55;;;;;;;0.50;0.50;;;;;;;;;;5013720;28;20019;-82
2023/10/26 18:58:22;;;;;;;0.50;0.50;;;;;;;;;;5008791;28;20031;-81
2023/10/26 19:00:48;;;;;;;0.45;0.45;;;;;;;;;;4988961;28;20045;-83
2023/10/26 19:03:15;;;;;;;0.50;0.50;;;;;;;;;;4972577;28;20126;-83
2023/10/26 19:05:42;;;;;;;0.40;0.40;;;;;;;;;;4974425;28;20062;-84
2023/10/26 19:08:09;;;;;;;0.50;0.50;;;;;;;;;;4976841;28;20042;-82
2023/10/26 19:10:35;;;;;;;0.40;0.40;;;;;;;;;;4974827;28;20034;-83
2023/10/26 19:13:05;;;;;;;0.40;0.40;;;;;;;;;;4974797;28;20111;-82
2023/10/26 19:15:41;;;;;;;0.50;0.50;;;;;;;;;;4931236;29;20040;-81
2023/10/26 19:18:07;;;;;;;0.40;0.40;;;;;;;;;;4919026;29;20029;-82
2023/10/26 19:20:38;;;;;;;0.50;0.50;;;;;;;;;;4938859;29;20021;-83